LOWI/INN METAR and TAF weather

Enter ICAO airport designator
Station Type Date Time Source
LOWI METAR 2019/04/22 17:50 UTC NOAA

LOWI 221750Z 12013KT 080V160 CAVOK 20/M00 Q1004 NOSIG


Station Type Date Time Source
LOWI Decoded METAR 2019/04/22 17:50 UTC NOAA

Innsbruck-Flughafen, Austria (LOWI) 47-16N 011-21E 593M
Apr 22, 2019 - 01:50 PM EDT / 2019.04.22 1750 UTC
Wind: from the ESE (120 degrees) at 15 MPH (13 KT) (direction variable):0
Visibility: greater than 7 mile(s):0
Temperature: 68 F (20 C)
Dew Point: 32 F (0 C)
Relative Humidity: 26%
Pressure (altimeter): 29.65 in. Hg (1004 hPa)
ob: LOWI 221750Z 12013KT 080V160 CAVOK 20/M00 Q1004 NOSIG
cycle: 18

Station Type Date Time Source
LOWI TAF 2019/04/22 18:21 UTC NOAA

TAF TAF LOWI 221715Z 2218/2318 10012G25KT CAVOK TX20/2313Z TN12/2304Z
TEMPO 2220/2308 27008KT
BECMG 2308/2310 11012G25KT
TEMPO 2310/2318 13020G40KT

Example: see airport list